CheckWX is a tool to help pilots better visualize weather data.  It is not intended as a substitute for an official pre-flight weather briefing.

06:58:58 UTC

KSAD METAR
Safford Regional Airport
Safford, Arizona, USA
Current

1 hour ago

KSAD 220551Z AUTO 31011KT 10SM FEW120 21/M04 A2992 RMK AO2 SLP086 T02061039 10300 20206 51021
Observed
Apr-22 @ 05:51 UTC
Wind
  • 310° at 11 KTS
Visibility
10 SM
Flight Rules
VFR
Cloud Levels
  • Few at 12,000' AGL
Temperature
21°C / 70°F
Dewpoint
-4°C / 25°F
Humidity
18%
Altimeter
29.92" Hg
Pressure
1013.22 hPa
Previous

2 hours ago

KSAD 220451Z AUTO 31009KT 10SM CLR 21/M03 A2990 RMK AO2 SLP081 T02061033
Observed
Apr-22 @ 04:51 UTC
Wind
  • 310° at 9 KTS
Visibility
10 SM
Flight Rules
VFR
Cloud Levels
  • Clear skies
Temperature
21°C / 70°F
Dewpoint
-3°C / 27°F
Humidity
20%
Altimeter
29.9" Hg
Pressure
1012.52 hPa
Previous

3 hours ago

KSAD 220351Z AUTO 31010KT 10SM CLR 22/M04 A2988 RMK AO2 SLP076 T02171039
Observed
Apr-22 @ 03:51 UTC
Wind
  • 310° at 10 KTS
Visibility
10 SM
Flight Rules
VFR
Cloud Levels
  • Clear skies
Temperature
22°C / 72°F
Dewpoint
-4°C / 25°F
Humidity
17%
Altimeter
29.88" Hg
Pressure
1011.82 hPa